createdAt,value
2019-05-22T00:01:01.517Z,32.90
2019-05-22T00:06:06.760Z,33.18
2019-05-22T00:11:12.652Z,30.88
2019-05-22T00:16:17.514Z,32.80
2019-05-22T00:21:22.790Z,34.98
2019-05-22T00:26:28.903Z,34.03
2019-05-22T00:31:33.205Z,34.58
2019-05-22T00:36:37.455Z,33.10
2019-05-22T00:41:42.309Z,30.08
2019-05-22T00:46:48.062Z,26.30
2019-05-22T00:52:09.859Z,24.75
2019-05-22T00:57:45.348Z,24.85
2019-05-22T01:02:53.207Z,21.60
2019-05-22T01:07:58.118Z,22.17
2019-05-22T01:13:04.404Z,20.57
2019-05-22T01:18:14.282Z,18.25
2019-05-22T01:23:21.439Z,16.42
2019-05-22T01:28:26.294Z,18.02
2019-05-22T01:33:33.639Z,16.62
2019-05-22T01:38:40.501Z,17.77
2019-05-22T01:43:46.216Z,18.20
2019-05-22T01:48:55.847Z,18.57
2019-05-22T01:54:00.999Z,19.50
2019-05-22T01:59:07.428Z,17.70
2019-05-22T02:04:14.981Z,15.05
2019-05-22T02:09:35.444Z,15.13
2019-05-22T02:14:44.294Z,13.50
2019-05-22T02:19:49.125Z,14.40
2019-05-22T02:24:55.256Z,12.68
2019-05-22T02:29:59.497Z,12.63
2019-05-22T02:35:05.423Z,11.18
2019-05-22T02:40:15.363Z,11.15
2019-05-22T02:45:20.829Z,11.12
2019-05-22T02:50:25.728Z,10.10
2019-05-22T02:55:30.271Z,11.60
2019-05-22T03:00:47.884Z,12.07
2019-05-22T03:05:52.907Z,11.60
2019-05-22T03:10:57.817Z,13.38
2019-05-22T03:16:02.722Z,14.05
2019-05-22T03:21:09.031Z,13.70
2019-05-22T03:26:14.896Z,14.98
2019-05-22T03:31:19.135Z,14.60
2019-05-22T03:36:24.489Z,14.47
2019-05-22T03:41:28.725Z,14.25
2019-05-22T03:46:42.456Z,13.93
2019-05-22T03:51:50.788Z,13.45
2019-05-22T03:56:55.883Z,14.83
2019-05-22T04:02:00.410Z,13.40
2019-05-22T04:07:06.698Z,10.72
2019-05-22T04:12:11.722Z,13.25
2019-05-22T04:17:17.690Z,15.70
2019-05-22T04:22:22.586Z,15.88
2019-05-22T04:27:26.928Z,14.60
2019-05-22T04:32:34.878Z,14.85
2019-05-22T04:37:40.726Z,14.43
2019-05-22T04:42:45.120Z,14.63
2019-05-22T04:47:58.418Z,14.83
2019-05-22T04:53:03.667Z,13.55
2019-05-22T04:58:10.740Z,13.40
2019-05-22T05:03:15.771Z,12.75
2019-05-22T05:08:20.248Z,13.10
2019-05-22T05:13:25.283Z,11.20
2019-05-22T05:18:29.945Z,11.12
2019-05-22T05:23:34.192Z,9.48
2019-05-22T05:28:39.113Z,8.05
2019-05-22T05:34:08.510Z,8.43
2019-05-22T05:40:09.927Z,8.45
2019-05-22T05:45:14.272Z,9.03
2019-05-22T05:50:20.284Z,10.43
2019-05-22T05:55:28.776Z,9.03
2019-05-22T06:00:36.073Z,9.78
2019-05-22T06:05:40.356Z,10.00
2019-05-22T06:11:27.071Z,13.20
2019-05-22T06:17:20.053Z,13.03
2019-05-22T06:22:24.406Z,11.12
2019-05-22T06:27:31.582Z,10.93
2019-05-22T06:33:26.122Z,10.08
2019-05-22T06:39:02.143Z,10.10
2019-05-22T06:44:42.125Z,11.63
2019-05-22T06:49:57.373Z,10.65
2019-05-22T06:55:01.965Z,10.35
2019-05-22T07:00:21.682Z,9.10
2019-05-22T07:05:25.924Z,9.95
2019-05-22T07:10:31.755Z,9.90
2019-05-22T07:15:41.795Z,9.90
2019-05-22T07:20:48.909Z,9.20
2019-05-22T07:25:53.577Z,8.03
2019-05-22T07:30:57.992Z,8.70
2019-05-22T07:36:10.229Z,8.50
2019-05-22T07:41:10.227Z,8.68
2019-05-22T07:46:14.620Z,8.25
2019-05-22T07:51:19.965Z,7.47
2019-05-22T07:56:24.282Z,7.22
2019-05-22T08:01:28.937Z,8.05
2019-05-22T08:06:33.960Z,7.78
2019-05-22T08:11:38.768Z,7.10
2019-05-22T08:16:43.608Z,8.10
2019-05-22T08:21:48.479Z,9.13
2019-05-22T08:26:55.044Z,6.75
2019-05-22T08:32:00.622Z,6.55
2019-05-22T08:37:07.217Z,6.70
2019-05-22T08:42:15.444Z,6.42
2019-05-22T08:47:20.561Z,7.35
2019-05-22T08:52:25.408Z,7.20
2019-05-22T08:57:30.146Z,6.47
2019-05-22T09:02:34.378Z,7.08
2019-05-22T09:07:39.746Z,7.33
2019-05-22T09:12:44.571Z,7.75
2019-05-22T09:17:48.822Z,7.40
2019-05-22T09:22:53.596Z,7.40
2019-05-22T09:27:58.562Z,7.65
2019-05-22T09:33:03.342Z,7.60
2019-05-22T09:38:07.718Z,6.97
2019-05-22T09:43:11.951Z,7.45
2019-05-22T09:48:16.578Z,7.33
2019-05-22T09:53:21.543Z,7.15
2019-05-22T09:58:25.983Z,6.70
2019-05-22T10:03:30.333Z,6.80
2019-05-22T10:08:34.909Z,7.28
2019-05-22T10:13:39.494Z,6.08
2019-05-22T10:18:44.199Z,7.50
2019-05-22T10:23:48.685Z,5.92
2019-05-22T10:28:52.985Z,5.87
2019-05-22T10:33:57.253Z,6.05
2019-05-22T10:39:01.651Z,6.42
2019-05-22T10:44:06.956Z,6.62
2019-05-22T10:49:11.293Z,7.78
2019-05-22T10:54:15.560Z,7.53
2019-05-22T10:59:19.862Z,5.75
2019-05-22T11:04:25.563Z,7.17
2019-05-22T11:09:30.831Z,7.50
2019-05-22T11:14:35.409Z,7.00
2019-05-22T11:19:39.855Z,7.45
2019-05-22T11:24:44.142Z,9.00
2019-05-22T11:29:48.962Z,9.08
2019-05-22T11:34:53.870Z,10.63
2019-05-22T11:39:58.122Z,11.18
2019-05-22T11:45:02.465Z,11.57
2019-05-22T11:50:07.195Z,11.60
2019-05-22T11:55:13.556Z,12.45
2019-05-22T12:00:20.208Z,14.25
2019-05-22T12:05:25.633Z,15.03
2019-05-22T12:10:30.451Z,16.42
2019-05-22T12:15:35.380Z,16.82
2019-05-22T12:20:40.147Z,16.02
2019-05-22T12:25:44.542Z,14.45
2019-05-22T12:30:49.651Z,16.40
2019-05-22T12:35:54.778Z,17.95
2019-05-22T12:40:59.597Z,15.78
2019-05-22T12:46:03.861Z,16.42
2019-05-22T12:51:08.108Z,15.60
2019-05-22T12:56:12.440Z,16.57
2019-05-22T13:01:18.586Z,14.68
2019-05-22T13:06:23.072Z,15.50
2019-05-22T13:11:27.567Z,17.50
2019-05-22T13:16:33.288Z,17.80
2019-05-22T13:21:39.403Z,18.67
2019-05-22T13:26:45.566Z,17.75
2019-05-22T13:31:52.511Z,20.97
2019-05-22T13:36:57.374Z,20.35
2019-05-22T13:42:01.636Z,19.92
2019-05-22T13:47:08.403Z,21.17
2019-05-22T13:52:14.636Z,19.40
2019-05-22T13:57:19.637Z,18.87
2019-05-22T14:02:27.091Z,21.07
2019-05-22T14:07:30.682Z,20.52
2019-05-22T14:12:34.944Z,20.88
2019-05-22T14:17:39.269Z,19.35
2019-05-22T14:22:43.518Z,17.15
2019-05-22T14:27:47.891Z,19.60
2019-05-22T14:32:52.361Z,18.87
2019-05-22T14:37:57.006Z,19.15
2019-05-22T14:43:01.754Z,18.48
2019-05-22T14:48:06.035Z,20.57
2019-05-22T14:53:13.112Z,21.65
2019-05-22T14:58:18.738Z,21.17
2019-05-22T15:03:24.056Z,20.37
2019-05-22T15:08:28.286Z,19.95
2019-05-22T15:13:32.869Z,19.87
2019-05-22T15:18:37.269Z,17.50
2019-05-22T15:23:43.492Z,19.82
2019-05-22T15:28:47.973Z,18.42
2019-05-22T15:33:52.529Z,18.77
2019-05-22T15:38:57.533Z,18.87
2019-05-22T15:44:02.000Z,17.55
2019-05-22T15:49:07.456Z,16.52
2019-05-22T15:54:12.778Z,16.15
2019-05-22T15:59:20.190Z,16.77
2019-05-22T16:04:24.677Z,15.53
2019-05-22T16:09:30.095Z,14.50
2019-05-22T16:14:37.235Z,15.43
2019-05-22T16:19:42.148Z,14.63
2019-05-22T16:24:46.397Z,14.45
2019-05-22T16:29:50.925Z,15.88
2019-05-22T16:34:56.150Z,14.28
2019-05-22T16:40:01.052Z,14.15
2019-05-22T16:45:06.988Z,14.10
2019-05-22T16:50:12.740Z,12.82
2019-05-22T16:55:18.099Z,13.58
2019-05-22T17:00:22.853Z,12.55
2019-05-22T17:05:27.887Z,11.55
2019-05-22T17:10:32.266Z,11.45
2019-05-22T17:15:38.518Z,10.88
2019-05-22T17:20:43.591Z,10.08
2019-05-22T17:25:48.056Z,9.98
2019-05-22T17:30:53.305Z,10.18
2019-05-22T17:35:58.541Z,9.88
2019-05-22T17:41:04.798Z,9.13
2019-05-22T17:46:10.555Z,8.98
2019-05-22T17:51:16.152Z,10.00
2019-05-22T17:56:21.319Z,9.05
2019-05-22T18:01:26.208Z,9.23
2019-05-22T18:06:30.549Z,9.18
2019-05-22T18:11:34.915Z,9.18
2019-05-22T18:16:39.169Z,9.53
2019-05-22T18:21:44.464Z,10.20
2019-05-22T18:26:48.719Z,9.60
2019-05-22T18:31:54.535Z,10.53
2019-05-22T18:36:58.795Z,9.65
2019-05-22T18:42:03.052Z,9.15
2019-05-22T18:47:08.410Z,8.08
2019-05-22T18:52:13.586Z,8.20
2019-05-22T18:57:18.712Z,7.65
2019-05-22T19:02:23.344Z,7.95
2019-05-22T19:07:29.492Z,8.05
2019-05-22T19:12:33.756Z,6.50
2019-05-22T19:17:38.388Z,7.10
2019-05-22T19:22:58.546Z,6.25
2019-05-22T19:27:48.732Z,5.97
2019-05-22T19:32:52.998Z,6.85
2019-05-22T19:37:57.885Z,4.90
2019-05-22T19:43:02.630Z,5.55
2019-05-22T19:48:07.153Z,5.67
2019-05-22T19:53:18.743Z,5.60
2019-05-22T19:58:21.998Z,5.75
2019-05-22T20:03:26.734Z,5.72
2019-05-22T20:08:32.087Z,7.55
2019-05-22T20:13:37.309Z,5.22
2019-05-22T20:18:41.936Z,5.70
2019-05-22T20:23:46.458Z,5.12
2019-05-22T20:28:50.714Z,6.40
2019-05-22T20:33:54.949Z,5.75
2019-05-22T20:38:59.401Z,5.42
2019-05-22T20:44:04.644Z,5.22
2019-05-22T20:49:10.304Z,6.35
2019-05-22T20:54:15.220Z,5.72
2019-05-22T20:59:21.354Z,5.22
2019-05-22T21:04:27.286Z,6.08
2019-05-22T21:09:32.429Z,5.22
2019-05-22T21:14:37.130Z,5.78
2019-05-22T21:19:43.174Z,5.42
2019-05-22T21:24:47.888Z,5.35
2019-05-22T21:29:53.487Z,5.45
2019-05-22T21:34:58.306Z,6.05
2019-05-22T21:40:03.614Z,6.15
2019-05-22T21:45:09.632Z,5.53
2019-05-22T21:50:15.019Z,5.55
2019-05-22T21:55:21.931Z,5.35
2019-05-22T22:01:00.595Z,5.80
2019-05-22T22:06:06.454Z,6.33
2019-05-22T22:11:11.231Z,6.37
2019-05-22T22:16:16.724Z,6.55
2019-05-22T22:21:20.967Z,5.55
2019-05-22T22:26:26.698Z,5.60
2019-05-22T22:31:33.018Z,5.10
2019-05-22T22:36:37.640Z,6.15
2019-05-22T22:41:42.793Z,4.90
2019-05-22T22:46:58.462Z,5.60
2019-05-22T22:52:03.895Z,5.53
2019-05-22T22:57:09.449Z,4.87
2019-05-22T23:02:17.647Z,5.50
2019-05-22T23:07:23.562Z,5.95
2019-05-22T23:12:28.221Z,6.00
2019-05-22T23:17:33.333Z,5.83
2019-05-22T23:22:35.874Z,6.08
2019-05-22T23:27:40.106Z,5.33
2019-05-22T23:32:44.357Z,6.33
2019-05-22T23:37:48.691Z,5.42
2019-05-22T23:42:53.426Z,5.25
2019-05-22T23:48:06.524Z,4.92
2019-05-22T23:53:12.967Z,5.33
2019-05-22T23:58:20.240Z,4.60
